sensor_id;sensor_type;location;lat;lon;timestamp;temperature;humidity
11142;DHT22;5625;50.122;19.864;2022-12-17T00:02:56;-0.30;99.90
11142;DHT22;5625;50.122;19.864;2022-12-17T00:05:42;-0.30;99.90
11142;DHT22;5625;50.122;19.864;2022-12-17T00:08:29;-0.40;99.90
11142;DHT22;5625;50.122;19.864;2022-12-17T00:11:15;-0.40;99.90
11142;DHT22;5625;50.122;19.864;2022-12-17T00:14:01;-0.40;99.90
11142;DHT22;5625;50.122;19.864;2022-12-17T00:16:46;-0.40;99.90
11142;DHT22;5625;50.122;19.864;2022-12-17T00:19:32;-0.40;99.90
11142;DHT22;5625;50.122;19.864;2022-12-17T00:22:17;-0.40;99.90
11142;DHT22;5625;50.122;19.864;2022-12-17T00:25:05;-0.40;99.90
11142;DHT22;5625;50.122;19.864;2022-12-17T00:27:50;-0.40;99.90
11142;DHT22;5625;50.122;19.864;2022-12-17T00:30:36;-0.40;99.90
11142;DHT22;5625;50.122;19.864;2022-12-17T00:33:22;-0.40;99.90
11142;DHT22;5625;50.122;19.864;2022-12-17T00:36:08;-0.40;99.90
11142;DHT22;5625;50.122;19.864;2022-12-17T00:38:53;-0.40;99.90
11142;DHT22;5625;50.122;19.864;2022-12-17T00:41:40;-0.40;99.90
11142;DHT22;5625;50.122;19.864;2022-12-17T00:44:25;-0.40;99.90
11142;DHT22;5625;50.122;19.864;2022-12-17T00:47:11;-0.50;99.90
11142;DHT22;5625;50.122;19.864;2022-12-17T00:49:57;-0.40;99.90
11142;DHT22;5625;50.122;19.864;2022-12-17T00:52:42;-0.50;99.90
11142;DHT22;5625;50.122;19.864;2022-12-17T00:55:27;-0.50;99.90
11142;DHT22;5625;50.122;19.864;2022-12-17T00:58:15;-0.50;99.90
11142;DHT22;5625;50.122;19.864;2022-12-17T01:01:01;-0.50;99.90
11142;DHT22;5625;50.122;19.864;2022-12-17T01:03:59;-0.50;99.90
11142;DHT22;5625;50.122;19.864;2022-12-17T01:06:44;-0.50;99.90
11142;DHT22;5625;50.122;19.864;2022-12-17T01:09:29;-0.50;99.90
11142;DHT22;5625;50.122;19.864;2022-12-17T01:12:15;-0.50;99.90
11142;DHT22;5625;50.122;19.864;2022-12-17T01:15:02;-0.50;99.90
11142;DHT22;5625;50.122;19.864;2022-12-17T01:17:48;-0.50;99.90
11142;DHT22;5625;50.122;19.864;2022-12-17T01:20:33;-0.50;99.90
11142;DHT22;5625;50.122;19.864;2022-12-17T01:23:19;-0.60;99.90
11142;DHT22;5625;50.122;19.864;2022-12-17T01:26:05;-0.50;99.90
11142;DHT22;5625;50.122;19.864;2022-12-17T01:28:50;-0.60;99.90
11142;DHT22;5625;50.122;19.864;2022-12-17T01:31:37;-0.60;99.90
11142;DHT22;5625;50.122;19.864;2022-12-17T01:34:23;-0.60;99.90
11142;DHT22;5625;50.122;19.864;2022-12-17T01:37:16;-0.60;99.90
11142;DHT22;5625;50.122;19.864;2022-12-17T01:40:02;-0.60;99.90
11142;DHT22;5625;50.122;19.864;2022-12-17T01:42:50;-0.60;99.90
11142;DHT22;5625;50.122;19.864;2022-12-17T01:45:37;-0.60;99.90
11142;DHT22;5625;50.122;19.864;2022-12-17T01:48:28;-0.60;99.90
11142;DHT22;5625;50.122;19.864;2022-12-17T01:51:15;-0.60;99.90
11142;DHT22;5625;50.122;19.864;2022-12-17T01:54:03;-0.60;99.90
11142;DHT22;5625;50.122;19.864;2022-12-17T01:56:49;-0.60;99.90
11142;DHT22;5625;50.122;19.864;2022-12-17T01:59:40;-0.60;99.90
11142;DHT22;5625;50.122;19.864;2022-12-17T02:02:27;-0.60;99.90
11142;DHT22;5625;50.122;19.864;2022-12-17T02:05:14;-0.60;99.90
11142;DHT22;5625;50.122;19.864;2022-12-17T02:08:08;-0.60;99.90
11142;DHT22;5625;50.122;19.864;2022-12-17T02:11:02;-0.60;99.90
11142;DHT22;5625;50.122;19.864;2022-12-17T02:13:54;-0.60;99.90
11142;DHT22;5625;50.122;19.864;2022-12-17T02:16:46;-0.60;99.90
11142;DHT22;5625;50.122;19.864;2022-12-17T02:19:44;-0.60;99.90
11142;DHT22;5625;50.122;19.864;2022-12-17T02:22:38;-0.60;99.90
11142;DHT22;5625;50.122;19.864;2022-12-17T02:25:34;-0.60;99.90
11142;DHT22;5625;50.122;19.864;2022-12-17T02:28:24;-0.60;99.90
11142;DHT22;5625;50.122;19.864;2022-12-17T02:33:56;-0.70;99.90
11142;DHT22;5625;50.122;19.864;2022-12-17T02:36:42;-0.70;99.90
11142;DHT22;5625;50.122;19.864;2022-12-17T02:39:27;-0.70;99.90
11142;DHT22;5625;50.122;19.864;2022-12-17T02:42:13;-0.70;99.90
11142;DHT22;5625;50.122;19.864;2022-12-17T02:45:00;-0.70;99.90
11142;DHT22;5625;50.122;19.864;2022-12-17T02:47:46;-0.70;99.90
11142;DHT22;5625;50.122;19.864;2022-12-17T02:50:31;-0.70;99.90
11142;DHT22;5625;50.122;19.864;2022-12-17T02:53:19;-0.70;99.90
11142;DHT22;5625;50.122;19.864;2022-12-17T02:56:13;-0.70;99.90
11142;DHT22;5625;50.122;19.864;2022-12-17T02:58:58;-0.70;99.90
11142;DHT22;5625;50.122;19.864;2022-12-17T03:01:45;-0.80;99.90
11142;DHT22;5625;50.122;19.864;2022-12-17T03:04:31;-0.80;99.90
11142;DHT22;5625;50.122;19.864;2022-12-17T03:07:16;-0.80;99.90
11142;DHT22;5625;50.122;19.864;2022-12-17T03:10:02;-0.80;99.90
11142;DHT22;5625;50.122;19.864;2022-12-17T03:12:47;-0.80;99.90
11142;DHT22;5625;50.122;19.864;2022-12-17T03:15:33;-0.80;99.90
11142;DHT22;5625;50.122;19.864;2022-12-17T03:18:20;-0.90;99.90
11142;DHT22;5625;50.122;19.864;2022-12-17T03:21:05;-0.90;99.90
11142;DHT22;5625;50.122;19.864;2022-12-17T03:23:51;-0.90;99.90
11142;DHT22;5625;50.122;19.864;2022-12-17T03:26:33;-0.90;99.90
11142;DHT22;5625;50.122;19.864;2022-12-17T03:29:18;-0.90;99.90
11142;DHT22;5625;50.122;19.864;2022-12-17T03:32:04;-0.90;99.90
11142;DHT22;5625;50.122;19.864;2022-12-17T03:34:50;-0.90;99.90
11142;DHT22;5625;50.122;19.864;2022-12-17T03:37:36;-0.90;99.90
11142;DHT22;5625;50.122;19.864;2022-12-17T03:40:21;-0.90;99.90
11142;DHT22;5625;50.122;19.864;2022-12-17T03:43:07;-0.90;99.90
11142;DHT22;5625;50.122;19.864;2022-12-17T03:45:53;-0.80;99.90
11142;DHT22;5625;50.122;19.864;2022-12-17T03:48:39;-0.90;99.90
11142;DHT22;5625;50.122;19.864;2022-12-17T03:51:26;-0.90;99.90
11142;DHT22;5625;50.122;19.864;2022-12-17T03:54:11;-0.90;99.90
11142;DHT22;5625;50.122;19.864;2022-12-17T03:56:57;-0.90;99.90
11142;DHT22;5625;50.122;19.864;2022-12-17T03:59:42;-0.90;99.90
11142;DHT22;5625;50.122;19.864;2022-12-17T04:02:28;-0.90;99.90
11142;DHT22;5625;50.122;19.864;2022-12-17T04:05:14;-0.90;99.90
11142;DHT22;5625;50.122;19.864;2022-12-17T04:08:00;-0.90;99.90
11142;DHT22;5625;50.122;19.864;2022-12-17T04:10:45;-0.90;99.90
11142;DHT22;5625;50.122;19.864;2022-12-17T04:13:31;-0.90;99.90
11142;DHT22;5625;50.122;19.864;2022-12-17T04:16:21;-0.90;99.90
11142;DHT22;5625;50.122;19.864;2022-12-17T04:19:06;-0.90;99.90
11142;DHT22;5625;50.122;19.864;2022-12-17T04:21:52;-0.90;99.90
11142;DHT22;5625;50.122;19.864;2022-12-17T04:24:39;-0.90;99.90
11142;DHT22;5625;50.122;19.864;2022-12-17T04:27:35;-0.90;99.90
11142;DHT22;5625;50.122;19.864;2022-12-17T04:30:21;-0.90;99.90
11142;DHT22;5625;50.122;19.864;2022-12-17T04:33:18;-0.90;99.90
11142;DHT22;5625;50.122;19.864;2022-12-17T04:36:04;-1.00;99.90
11142;DHT22;5625;50.122;19.864;2022-12-17T04:38:50;-0.90;99.90
11142;DHT22;5625;50.122;19.864;2022-12-17T04:41:36;-1.00;99.90
11142;DHT22;5625;50.122;19.864;2022-12-17T04:44:22;-1.00;99.90
11142;DHT22;5625;50.122;19.864;2022-12-17T04:47:07;-0.90;99.90
11142;DHT22;5625;50.122;19.864;2022-12-17T04:49:53;-0.90;99.90
11142;DHT22;5625;50.122;19.864;2022-12-17T04:52:38;-1.00;99.90
11142;DHT22;5625;50.122;19.864;2022-12-17T04:55:24;-0.90;99.90
11142;DHT22;5625;50.122;19.864;2022-12-17T04:58:11;-0.90;99.90
11142;DHT22;5625;50.122;19.864;2022-12-17T05:00:56;-0.90;99.90
11142;DHT22;5625;50.122;19.864;2022-12-17T05:03:42;-0.90;99.90
11142;DHT22;5625;50.122;19.864;2022-12-17T05:06:27;-0.90;99.90
11142;DHT22;5625;50.122;19.864;2022-12-17T05:09:13;-0.90;99.90
11142;DHT22;5625;50.122;19.864;2022-12-17T05:11:58;-1.00;99.90
11142;DHT22;5625;50.122;19.864;2022-12-17T05:14:45;-1.00;99.90
11142;DHT22;5625;50.122;19.864;2022-12-17T05:17:31;-1.00;99.90
11142;DHT22;5625;50.122;19.864;2022-12-17T05:20:16;-1.00;99.90
11142;DHT22;5625;50.122;19.864;2022-12-17T05:23:05;-1.00;99.90
11142;DHT22;5625;50.122;19.864;2022-12-17T05:25:57;-1.00;99.90
11142;DHT22;5625;50.122;19.864;2022-12-17T05:28:45;-1.00;99.90
11142;DHT22;5625;50.122;19.864;2022-12-17T05:31:32;-1.10;99.90
11142;DHT22;5625;50.122;19.864;2022-12-17T05:34:18;-1.10;99.90
11142;DHT22;5625;50.122;19.864;2022-12-17T05:37:03;-1.10;99.90
11142;DHT22;5625;50.122;19.864;2022-12-17T05:39:48;-1.10;99.90
11142;DHT22;5625;50.122;19.864;2022-12-17T05:42:38;-1.10;99.90
11142;DHT22;5625;50.122;19.864;2022-12-17T05:45:23;-1.00;99.90
11142;DHT22;5625;50.122;19.864;2022-12-17T05:48:10;-1.10;99.90
11142;DHT22;5625;50.122;19.864;2022-12-17T05:50:56;-1.10;99.90
11142;DHT22;5625;50.122;19.864;2022-12-17T05:53:41;-1.10;99.90
11142;DHT22;5625;50.122;19.864;2022-12-17T05:56:27;-1.10;99.90
11142;DHT22;5625;50.122;19.864;2022-12-17T05:59:12;-1.10;99.90
11142;DHT22;5625;50.122;19.864;2022-12-17T06:01:58;-1.10;99.90
11142;DHT22;5625;50.122;19.864;2022-12-17T06:04:45;-1.20;99.90
11142;DHT22;5625;50.122;19.864;2022-12-17T06:07:31;-1.10;99.90
11142;DHT22;5625;50.122;19.864;2022-12-17T06:10:25;-1.20;99.90
11142;DHT22;5625;50.122;19.864;2022-12-17T06:13:10;-1.10;99.90
11142;DHT22;5625;50.122;19.864;2022-12-17T06:15:56;-1.20;99.90
11142;DHT22;5625;50.122;19.864;2022-12-17T06:18:42;-1.20;99.90
11142;DHT22;5625;50.122;19.864;2022-12-17T06:21:29;-1.20;99.90
11142;DHT22;5625;50.122;19.864;2022-12-17T06:24:14;-1.20;99.90
11142;DHT22;5625;50.122;19.864;2022-12-17T06:27:12;-1.20;99.90
11142;DHT22;5625;50.122;19.864;2022-12-17T06:29:57;-1.20;99.90
11142;DHT22;5625;50.122;19.864;2022-12-17T06:32:45;-1.20;99.90
11142;DHT22;5625;50.122;19.864;2022-12-17T06:35:31;-1.30;99.90
11142;DHT22;5625;50.122;19.864;2022-12-17T06:38:18;-1.20;99.90
11142;DHT22;5625;50.122;19.864;2022-12-17T06:41:03;-1.20;99.90
11142;DHT22;5625;50.122;19.864;2022-12-17T06:43:48;-1.20;99.90
11142;DHT22;5625;50.122;19.864;2022-12-17T06:46:34;-1.20;99.90
11142;DHT22;5625;50.122;19.864;2022-12-17T06:49:20;-1.20;99.90
11142;DHT22;5625;50.122;19.864;2022-12-17T06:52:05;-1.20;99.90
11142;DHT22;5625;50.122;19.864;2022-12-17T06:54:52;-1.20;99.90
11142;DHT22;5625;50.122;19.864;2022-12-17T06:57:37;-1.20;99.90
11142;DHT22;5625;50.122;19.864;2022-12-17T07:00:23;-1.20;99.90
11142;DHT22;5625;50.122;19.864;2022-12-17T07:03:09;-1.30;99.90
11142;DHT22;5625;50.122;19.864;2022-12-17T07:05:59;-1.30;99.90
11142;DHT22;5625;50.122;19.864;2022-12-17T07:08:44;-1.30;99.90
11142;DHT22;5625;50.122;19.864;2022-12-17T07:11:31;-1.30;99.90
11142;DHT22;5625;50.122;19.864;2022-12-17T07:14:19;-1.30;99.90
11142;DHT22;5625;50.122;19.864;2022-12-17T07:17:05;-1.20;99.90
11142;DHT22;5625;50.122;19.864;2022-12-17T07:19:50;-1.30;99.90
11142;DHT22;5625;50.122;19.864;2022-12-17T07:22:36;-1.20;99.90
11142;DHT22;5625;50.122;19.864;2022-12-17T07:25:21;-1.30;99.90
11142;DHT22;5625;50.122;19.864;2022-12-17T07:28:13;-1.30;99.90
11142;DHT22;5625;50.122;19.864;2022-12-17T07:30:58;-1.20;99.90
11142;DHT22;5625;50.122;19.864;2022-12-17T07:33:52;-1.10;99.90
11142;DHT22;5625;50.122;19.864;2022-12-17T07:36:38;-1.10;99.90
11142;DHT22;5625;50.122;19.864;2022-12-17T07:39:23;-1.10;99.90
11142;DHT22;5625;50.122;19.864;2022-12-17T07:42:09;-1.10;99.90
11142;DHT22;5625;50.122;19.864;2022-12-17T07:44:56;-1.10;99.90
11142;DHT22;5625;50.122;19.864;2022-12-17T07:47:41;-1.10;99.90
11142;DHT22;5625;50.122;19.864;2022-12-17T07:50:27;-1.10;99.90
11142;DHT22;5625;50.122;19.864;2022-12-17T07:53:24;-1.10;99.90
11142;DHT22;5625;50.122;19.864;2022-12-17T07:56:09;-1.10;99.90
11142;DHT22;5625;50.122;19.864;2022-12-17T07:58:54;-1.10;99.90
11142;DHT22;5625;50.122;19.864;2022-12-17T08:01:41;-1.10;99.90
11142;DHT22;5625;50.122;19.864;2022-12-17T08:04:27;-1.10;99.90
11142;DHT22;5625;50.122;19.864;2022-12-17T08:07:16;-1.10;99.90
11142;DHT22;5625;50.122;19.864;2022-12-17T08:10:02;-1.00;99.90
11142;DHT22;5625;50.122;19.864;2022-12-17T08:13:00;-1.10;99.90
11142;DHT22;5625;50.122;19.864;2022-12-17T08:15:47;-1.00;99.90
11142;DHT22;5625;50.122;19.864;2022-12-17T08:18:37;-1.00;99.90
11142;DHT22;5625;50.122;19.864;2022-12-17T08:21:22;-0.90;99.90
11142;DHT22;5625;50.122;19.864;2022-12-17T08:24:08;-0.90;99.90
11142;DHT22;5625;50.122;19.864;2022-12-17T08:26:53;-0.90;99.90
11142;DHT22;5625;50.122;19.864;2022-12-17T08:29:39;-0.90;99.90
11142;DHT22;5625;50.122;19.864;2022-12-17T08:32:24;-0.80;99.90
11142;DHT22;5625;50.122;19.864;2022-12-17T08:35:11;-0.80;99.90
11142;DHT22;5625;50.122;19.864;2022-12-17T08:38:00;-0.80;99.90
11142;DHT22;5625;50.122;19.864;2022-12-17T08:40:45;-0.80;99.90
11142;DHT22;5625;50.122;19.864;2022-12-17T08:43:31;-0.80;99.90
11142;DHT22;5625;50.122;19.864;2022-12-17T08:46:16;-0.80;99.90
11142;DHT22;5625;50.122;19.864;2022-12-17T08:49:02;-0.70;99.90
11142;DHT22;5625;50.122;19.864;2022-12-17T08:51:48;-0.70;99.90
11142;DHT22;5625;50.122;19.864;2022-12-17T08:54:34;-0.70;99.90
11142;DHT22;5625;50.122;19.864;2022-12-17T08:57:19;-0.60;99.90
11142;DHT22;5625;50.122;19.864;2022-12-17T09:00:05;-0.60;99.90
11142;DHT22;5625;50.122;19.864;2022-12-17T09:02:55;-0.60;99.90
11142;DHT22;5625;50.122;19.864;2022-12-17T09:05:41;-0.60;99.90
11142;DHT22;5625;50.122;19.864;2022-12-17T09:08:27;-0.50;99.90
11142;DHT22;5625;50.122;19.864;2022-12-17T09:11:13;-0.50;99.90
11142;DHT22;5625;50.122;19.864;2022-12-17T09:13:58;-0.50;99.90
11142;DHT22;5625;50.122;19.864;2022-12-17T09:16:44;-0.40;99.90
11142;DHT22;5625;50.122;19.864;2022-12-17T09:19:29;-0.40;99.90
11142;DHT22;5625;50.122;19.864;2022-12-17T09:22:14;-0.30;99.90
11142;DHT22;5625;50.122;19.864;2022-12-17T09:25:01;-0.20;99.90
11142;DHT22;5625;50.122;19.864;2022-12-17T09:27:47;-0.20;99.90
11142;DHT22;5625;50.122;19.864;2022-12-17T09:30:33;-0.10;99.90
11142;DHT22;5625;50.122;19.864;2022-12-17T09:33:19;-0.10;99.90
11142;DHT22;5625;50.122;19.864;2022-12-17T09:36:05;-0.10;99.90
11142;DHT22;5625;50.122;19.864;2022-12-17T09:38:51;-0.10;99.90
11142;DHT22;5625;50.122;19.864;2022-12-17T09:41:43;0.00;99.90
11142;DHT22;5625;50.122;19.864;2022-12-17T09:44:36;0.00;99.90
11142;DHT22;5625;50.122;19.864;2022-12-17T09:47:30;0.00;99.90
11142;DHT22;5625;50.122;19.864;2022-12-17T09:50:20;0.10;99.90
11142;DHT22;5625;50.122;19.864;2022-12-17T09:53:03;0.00;99.90
11142;DHT22;5625;50.122;19.864;2022-12-17T09:55:53;0.00;99.90
11142;DHT22;5625;50.122;19.864;2022-12-17T09:58:40;0.00;99.90
11142;DHT22;5625;50.122;19.864;2022-12-17T10:01:27;0.00;99.90
11142;DHT22;5625;50.122;19.864;2022-12-17T10:04:19;0.00;99.90
11142;DHT22;5625;50.122;19.864;2022-12-17T10:07:10;0.00;99.90
11142;DHT22;5625;50.122;19.864;2022-12-17T10:09:59;0.00;99.90
11142;DHT22;5625;50.122;19.864;2022-12-17T10:12:45;-0.10;99.90
11142;DHT22;5625;50.122;19.864;2022-12-17T10:15:32;0.00;99.90
11142;DHT22;5625;50.122;19.864;2022-12-17T10:18:18;0.00;99.90
11142;DHT22;5625;50.122;19.864;2022-12-17T10:21:08;0.00;99.90
11142;DHT22;5625;50.122;19.864;2022-12-17T10:24:03;0.00;99.90
11142;DHT22;5625;50.122;19.864;2022-12-17T10:26:49;-0.10;99.90
11142;DHT22;5625;50.122;19.864;2022-12-17T10:29:35;0.00;99.90
11142;DHT22;5625;50.122;19.864;2022-12-17T10:32:23;0.00;99.90
11142;DHT22;5625;50.122;19.864;2022-12-17T10:35:22;0.00;99.90
11142;DHT22;5625;50.122;19.864;2022-12-17T10:38:12;0.00;99.90
11142;DHT22;5625;50.122;19.864;2022-12-17T10:40:58;0.00;99.90
11142;DHT22;5625;50.122;19.864;2022-12-17T10:43:43;0.00;99.90
11142;DHT22;5625;50.122;19.864;2022-12-17T10:46:40;0.10;99.90
11142;DHT22;5625;50.122;19.864;2022-12-17T10:49:43;0.00;99.90
11142;DHT22;5625;50.122;19.864;2022-12-17T10:52:31;0.10;99.90
11142;DHT22;5625;50.122;19.864;2022-12-17T10:55:21;0.10;99.90
11142;DHT22;5625;50.122;19.864;2022-12-17T10:58:10;0.10;99.90
11142;DHT22;5625;50.122;19.864;2022-12-17T11:00:59;0.00;99.90
11142;DHT22;5625;50.122;19.864;2022-12-17T11:03:49;0.00;99.90
11142;DHT22;5625;50.122;19.864;2022-12-17T11:06:39;0.10;99.90
11142;DHT22;5625;50.122;19.864;2022-12-17T11:09:36;0.10;99.90
11142;DHT22;5625;50.122;19.864;2022-12-17T11:12:27;0.10;99.90
11142;DHT22;5625;50.122;19.864;2022-12-17T11:15:18;0.10;99.90
11142;DHT22;5625;50.122;19.864;2022-12-17T11:18:05;0.10;99.90
11142;DHT22;5625;50.122;19.864;2022-12-17T11:20:59;0.00;99.90
11142;DHT22;5625;50.122;19.864;2022-12-17T11:23:51;0.00;99.90
11142;DHT22;5625;50.122;19.864;2022-12-17T11:26:38;-0.10;99.90
11142;DHT22;5625;50.122;19.864;2022-12-17T11:29:26;-0.10;99.90
11142;DHT22;5625;50.122;19.864;2022-12-17T11:32:28;-0.10;99.90
11142;DHT22;5625;50.122;19.864;2022-12-17T11:35:18;-0.10;99.90
11142;DHT22;5625;50.122;19.864;2022-12-17T11:38:12;-0.20;99.90
11142;DHT22;5625;50.122;19.864;2022-12-17T11:41:09;-0.20;99.90
11142;DHT22;5625;50.122;19.864;2022-12-17T11:44:00;-0.20;99.90
11142;DHT22;5625;50.122;19.864;2022-12-17T11:46:50;-0.20;99.90
11142;DHT22;5625;50.122;19.864;2022-12-17T11:49:43;-0.30;99.90
11142;DHT22;5625;50.122;19.864;2022-12-17T11:52:35;-0.30;99.90
11142;DHT22;5625;50.122;19.864;2022-12-17T11:55:32;-0.30;99.90
11142;DHT22;5625;50.122;19.864;2022-12-17T11:58:26;-0.30;99.90
11142;DHT22;5625;50.122;19.864;2022-12-17T12:01:19;-0.30;99.90
11142;DHT22;5625;50.122;19.864;2022-12-17T12:04:18;-0.40;99.90
11142;DHT22;5625;50.122;19.864;2022-12-17T12:07:12;-0.40;99.90
11142;DHT22;5625;50.122;19.864;2022-12-17T12:10:03;-0.40;99.90
11142;DHT22;5625;50.122;19.864;2022-12-17T12:12:59;-0.40;99.90
11142;DHT22;5625;50.122;19.864;2022-12-17T12:15:56;-0.40;99.90
11142;DHT22;5625;50.122;19.864;2022-12-17T12:18:52;-0.50;99.90
11142;DHT22;5625;50.122;19.864;2022-12-17T12:22:02;-0.40;99.90
11142;DHT22;5625;50.122;19.864;2022-12-17T12:25:19;-0.50;99.90
11142;DHT22;5625;50.122;19.864;2022-12-17T12:28:12;-0.50;99.90
11142;DHT22;5625;50.122;19.864;2022-12-17T12:31:11;-0.50;99.90
11142;DHT22;5625;50.122;19.864;2022-12-17T12:34:01;-0.60;99.90
11142;DHT22;5625;50.122;19.864;2022-12-17T12:36:50;-0.50;99.90
11142;DHT22;5625;50.122;19.864;2022-12-17T12:39:38;-0.60;99.90
11142;DHT22;5625;50.122;19.864;2022-12-17T12:42:28;-0.60;99.90
11142;DHT22;5625;50.122;19.864;2022-12-17T12:45:31;-0.60;99.90
11142;DHT22;5625;50.122;19.864;2022-12-17T12:48:33;-0.60;99.90
11142;DHT22;5625;50.122;19.864;2022-12-17T12:51:24;-0.70;99.90
11142;DHT22;5625;50.122;19.864;2022-12-17T12:54:28;-0.70;99.90
11142;DHT22;5625;50.122;19.864;2022-12-17T12:57:30;-0.70;99.90
11142;DHT22;5625;50.122;19.864;2022-12-17T13:00:28;-0.70;99.90
11142;DHT22;5625;50.122;19.864;2022-12-17T13:03:23;-0.80;99.90
11142;DHT22;5625;50.122;19.864;2022-12-17T13:06:12;-0.80;99.90
11142;DHT22;5625;50.122;19.864;2022-12-17T13:08:41;-0.80;99.90
11142;DHT22;5625;50.122;19.864;2022-12-17T13:11:27;-0.80;99.90
11142;DHT22;5625;50.122;19.864;2022-12-17T13:13:59;-0.80;99.90
11142;DHT22;5625;50.122;19.864;2022-12-17T13:16:40;-0.70;99.90
11142;DHT22;5625;50.122;19.864;2022-12-17T13:19:30;-0.70;99.90
11142;DHT22;5625;50.122;19.864;2022-12-17T13:22:11;-0.80;99.90
11142;DHT22;5625;50.122;19.864;2022-12-17T13:25:07;-0.80;99.90
11142;DHT22;5625;50.122;19.864;2022-12-17T13:27:38;-0.80;99.90
11142;DHT22;5625;50.122;19.864;2022-12-17T13:30:19;-0.80;99.90
11142;DHT22;5625;50.122;19.864;2022-12-17T13:32:52;-0.80;99.90
11142;DHT22;5625;50.122;19.864;2022-12-17T13:35:29;-0.80;99.90
11142;DHT22;5625;50.122;19.864;2022-12-17T13:38:08;-0.80;99.90
11142;DHT22;5625;50.122;19.864;2022-12-17T13:40:43;-0.80;99.90
11142;DHT22;5625;50.122;19.864;2022-12-17T13:43:17;-0.80;99.90
11142;DHT22;5625;50.122;19.864;2022-12-17T13:45:46;-0.80;99.90
11142;DHT22;5625;50.122;19.864;2022-12-17T13:48:21;-0.80;99.90
11142;DHT22;5625;50.122;19.864;2022-12-17T13:50:53;-0.80;99.90
11142;DHT22;5625;50.122;19.864;2022-12-17T13:53:23;-0.80;99.90
11142;DHT22;5625;50.122;19.864;2022-12-17T13:55:52;-0.80;99.90
11142;DHT22;5625;50.122;19.864;2022-12-17T13:58:22;-0.80;99.90
11142;DHT22;5625;50.122;19.864;2022-12-17T14:00:51;-0.80;99.90
11142;DHT22;5625;50.122;19.864;2022-12-17T14:03:20;-0.80;99.90
11142;DHT22;5625;50.122;19.864;2022-12-17T14:06:09;-0.80;99.90
11142;DHT22;5625;50.122;19.864;2022-12-17T14:08:39;-0.90;99.90
11142;DHT22;5625;50.122;19.864;2022-12-17T14:11:10;-0.90;99.90
11142;DHT22;5625;50.122;19.864;2022-12-17T14:13:56;-0.90;99.90
11142;DHT22;5625;50.122;19.864;2022-12-17T14:16:25;-0.90;99.90
11142;DHT22;5625;50.122;19.864;2022-12-17T14:18:54;-1.00;99.90
11142;DHT22;5625;50.122;19.864;2022-12-17T14:21:24;-0.90;99.90
11142;DHT22;5625;50.122;19.864;2022-12-17T14:23:54;-1.00;99.90
11142;DHT22;5625;50.122;19.864;2022-12-17T14:26:23;-1.00;99.90
11142;DHT22;5625;50.122;19.864;2022-12-17T14:28:53;-1.00;99.90
11142;DHT22;5625;50.122;19.864;2022-12-17T14:31:23;-1.00;99.90
11142;DHT22;5625;50.122;19.864;2022-12-17T14:34:02;-1.00;99.90
11142;DHT22;5625;50.122;19.864;2022-12-17T14:36:34;-1.00;99.90
11142;DHT22;5625;50.122;19.864;2022-12-17T14:39:13;-1.10;99.90
11142;DHT22;5625;50.122;19.864;2022-12-17T14:41:42;-1.10;99.90
11142;DHT22;5625;50.122;19.864;2022-12-17T14:44:29;-1.10;99.90
11142;DHT22;5625;50.122;19.864;2022-12-17T14:47:09;-1.10;99.90
11142;DHT22;5625;50.122;19.864;2022-12-17T14:52:35;-1.10;99.90
11142;DHT22;5625;50.122;19.864;2022-12-17T14:55:28;-1.10;99.90
11142;DHT22;5625;50.122;19.864;2022-12-17T14:58:15;-1.10;99.90
11142;DHT22;5625;50.122;19.864;2022-12-17T15:00:46;-1.20;99.90
11142;DHT22;5625;50.122;19.864;2022-12-17T15:03:18;-1.20;99.90
11142;DHT22;5625;50.122;19.864;2022-12-17T15:05:50;-1.20;99.90
11142;DHT22;5625;50.122;19.864;2022-12-17T15:08:20;-1.20;99.90
11142;DHT22;5625;50.122;19.864;2022-12-17T15:10:49;-1.30;99.90
11142;DHT22;5625;50.122;19.864;2022-12-17T15:13:17;-1.30;99.90
11142;DHT22;5625;50.122;19.864;2022-12-17T15:15:46;-1.30;99.90
11142;DHT22;5625;50.122;19.864;2022-12-17T15:18:14;-1.30;99.90
11142;DHT22;5625;50.122;19.864;2022-12-17T15:20:42;-1.30;99.90
11142;DHT22;5625;50.122;19.864;2022-12-17T15:23:14;-1.30;99.90
11142;DHT22;5625;50.122;19.864;2022-12-17T15:25:43;-1.30;99.90
11142;DHT22;5625;50.122;19.864;2022-12-17T15:28:15;-1.30;99.90
11142;DHT22;5625;50.122;19.864;2022-12-17T15:30:43;-1.40;99.90
11142;DHT22;5625;50.122;19.864;2022-12-17T15:33:12;-1.40;99.90
11142;DHT22;5625;50.122;19.864;2022-12-17T15:35:40;-1.40;99.90
11142;DHT22;5625;50.122;19.864;2022-12-17T15:38:09;-1.40;99.90
11142;DHT22;5625;50.122;19.864;2022-12-17T15:40:39;-1.40;99.90
11142;DHT22;5625;50.122;19.864;2022-12-17T15:43:09;-1.40;99.90
11142;DHT22;5625;50.122;19.864;2022-12-17T15:45:42;-1.40;99.90
11142;DHT22;5625;50.122;19.864;2022-12-17T15:48:12;-1.50;99.90
11142;DHT22;5625;50.122;19.864;2022-12-17T15:50:40;-1.40;99.90
11142;DHT22;5625;50.122;19.864;2022-12-17T15:53:09;-1.40;99.90
11142;DHT22;5625;50.122;19.864;2022-12-17T15:55:37;-1.40;99.90
11142;DHT22;5625;50.122;19.864;2022-12-17T15:58:06;-1.40;99.90
11142;DHT22;5625;50.122;19.864;2022-12-17T16:00:37;-1.50;99.90
11142;DHT22;5625;50.122;19.864;2022-12-17T16:03:09;-1.50;99.90
11142;DHT22;5625;50.122;19.864;2022-12-17T16:05:37;-1.50;99.90
11142;DHT22;5625;50.122;19.864;2022-12-17T16:08:05;-1.50;99.90
11142;DHT22;5625;50.122;19.864;2022-12-17T16:10:34;-1.50;99.90
11142;DHT22;5625;50.122;19.864;2022-12-17T16:13:02;-1.50;99.90
11142;DHT22;5625;50.122;19.864;2022-12-17T16:15:30;-1.50;99.90
11142;DHT22;5625;50.122;19.864;2022-12-17T16:17:58;-1.50;99.90
11142;DHT22;5625;50.122;19.864;2022-12-17T16:20:28;-1.50;99.90
11142;DHT22;5625;50.122;19.864;2022-12-17T16:22:56;-1.50;99.90
11142;DHT22;5625;50.122;19.864;2022-12-17T16:25:24;-1.60;99.90
11142;DHT22;5625;50.122;19.864;2022-12-17T16:27:52;-1.60;99.90
11142;DHT22;5625;50.122;19.864;2022-12-17T16:30:21;-1.60;99.90
11142;DHT22;5625;50.122;19.864;2022-12-17T16:32:51;-1.60;99.90
11142;DHT22;5625;50.122;19.864;2022-12-17T16:35:19;-1.60;99.90
11142;DHT22;5625;50.122;19.864;2022-12-17T16:37:51;-1.60;99.90
11142;DHT22;5625;50.122;19.864;2022-12-17T16:40:19;-1.60;99.90
11142;DHT22;5625;50.122;19.864;2022-12-17T16:42:47;-1.60;99.90
11142;DHT22;5625;50.122;19.864;2022-12-17T16:45:15;-1.60;99.90
11142;DHT22;5625;50.122;19.864;2022-12-17T16:47:43;-1.60;99.90
11142;DHT22;5625;50.122;19.864;2022-12-17T16:50:12;-1.60;99.90
11142;DHT22;5625;50.122;19.864;2022-12-17T16:52:41;-1.60;99.90
11142;DHT22;5625;50.122;19.864;2022-12-17T16:55:10;-1.60;99.90
11142;DHT22;5625;50.122;19.864;2022-12-17T16:57:38;-1.60;99.90
11142;DHT22;5625;50.122;19.864;2022-12-17T17:00:08;-1.60;99.90
11142;DHT22;5625;50.122;19.864;2022-12-17T17:02:36;-1.60;99.90
11142;DHT22;5625;50.122;19.864;2022-12-17T17:05:04;-1.60;99.90
11142;DHT22;5625;50.122;19.864;2022-12-17T17:07:34;-1.60;99.90
11142;DHT22;5625;50.122;19.864;2022-12-17T17:10:02;-1.60;99.90
11142;DHT22;5625;50.122;19.864;2022-12-17T17:12:33;-1.60;99.90
11142;DHT22;5625;50.122;19.864;2022-12-17T17:15:01;-1.60;99.90
11142;DHT22;5625;50.122;19.864;2022-12-17T17:17:30;-1.60;99.90
11142;DHT22;5625;50.122;19.864;2022-12-17T17:20:22;-1.60;99.90
11142;DHT22;5625;50.122;19.864;2022-12-17T17:22:50;-1.60;99.90
11142;DHT22;5625;50.122;19.864;2022-12-17T17:25:28;-1.60;99.90